Terminal Aerodrome Forecast
Issued by NWS

Home | Current Version | Previous Version | Text Only | Print | Product List | Glossary On
Versions: 1 2 3 4 5 6 7 8 9 10 11 12 13
000
FTUS43 KDTX 250536
TAFMBS
TAF
KMBS 250536Z 2506/2606 10008KT P6SM BKN080 OVC120
     FM251300 18012G18KT P6SM SCT080 BKN120
     FM251700 22018G28KT P6SM BKN040 OVC080 PROB30 2517/2520 6SM
      SHRA OVC040
     FM252300 22012G19KT P6SM SCT060 BKN200=

USA.gov is the U.S. government's official web portal to all federal, state and local government web resources and services.